Time,TemperatureF,DewpointF,PressureIn,WindDirection,WindDirectionDegrees,WindSpeedMPH,WindSpeedGustMPH,Humidity,HourlyPrecipIn,Conditions,Clouds,dailyrainin,SoftwareType,DateUTC
2013-11-05 00:00:00,54.3,41.0,30.07,NE,51,3.0,7.0,62,0.00,,,0.00,weatherlink.com 1.10,2013-11-05 08:00:00,
2013-11-05 00:15:00,54.4,41.0,30.07,North,5,3.0,6.0,61,0.00,,,0.00,weatherlink.com 1.10,2013-11-05 08:15:00,
2013-11-05 00:30:00,54.1,40.0,30.06,NE,41,2.0,6.0,60,0.00,,,0.00,weatherlink.com 1.10,2013-11-05 08:30:00,
2013-11-05 00:45:00,53.0,41.0,30.06,NNE,33,5.0,5.0,63,0.00,,,0.00,weatherlink.com 1.10,2013-11-05 08:45:00,
2013-11-05 01:00:00,52.9,40.0,30.06,ENE,78,3.0,4.0,62,0.00,,,0.00,weatherlink.com 1.10,2013-11-05 09:00:00,
2013-11-05 01:16:00,54.5,37.0,30.05,NE,44,1.0,7.0,52,0.00,,,0.00,weatherlink.com 1.10,2013-11-05 09:16:00,
2013-11-05 01:31:00,55.4,37.0,30.05,ENE,72,3.0,7.0,50,0.00,,,0.00,weatherlink.com 1.10,2013-11-05 09:31:00,
2013-11-05 01:46:00,55.1,37.0,30.04,North,5,6.0,6.0,50,0.00,,,0.00,weatherlink.com 1.10,2013-11-05 09:46:00,
2013-11-05 02:01:00,55.3,36.0,30.04,North,356,3.0,6.0,49,0.00,,,0.00,weatherlink.com 1.10,2013-11-05 10:01:00,
2013-11-05 02:16:00,55.1,36.0,30.05,NE,46,1.0,8.0,49,0.00,,,0.00,weatherlink.com 1.10,2013-11-05 10:16:00,
2013-11-05 02:31:00,56.2,35.0,30.05,NE,55,4.0,7.0,46,0.00,,,0.00,weatherlink.com 1.10,2013-11-05 10:31:00,
2013-11-05 02:46:00,56.8,35.0,30.05,NE,39,2.0,7.0,44,0.00,,,0.00,weatherlink.com 1.10,2013-11-05 10:46:00,
2013-11-05 03:01:00,57.3,35.0,30.05,NNW,345,1.0,8.0,43,0.00,,,0.00,weatherlink.com 1.10,2013-11-05 11:01:00,
2013-11-05 03:16:00,55.9,37.0,30.07,North,360,4.0,7.0,49,0.00,,,0.00,weatherlink.com 1.10,2013-11-05 11:16:00,
2013-11-05 03:31:00,55.5,37.0,30.07,NE,51,5.0,8.0,51,0.00,,,0.00,weatherlink.com 1.10,2013-11-05 11:31:00,
2013-11-05 03:46:00,54.4,38.0,30.08,NE,41,2.0,6.0,54,0.00,,,0.00,weatherlink.com 1.10,2013-11-05 11:46:00,
2013-11-05 04:01:00,53.8,38.0,30.09,NE,39,3.0,7.0,55,0.00,,,0.00,weatherlink.com 1.10,2013-11-05 12:01:00,
2013-11-05 04:16:00,54.1,37.0,30.08,ENE,64,1.0,6.0,53,0.00,,,0.00,weatherlink.com 1.10,2013-11-05 12:16:00,
2013-11-05 04:31:00,54.3,36.0,30.09,NNE,16,3.0,4.0,50,0.00,,,0.00,weatherlink.com 1.10,2013-11-05 12:31:00,
2013-11-05 04:46:00,54.8,36.0,30.09,NNE,32,0.0,2.0,49,0.00,,,0.00,weatherlink.com 1.10,2013-11-05 12:46:00,
2013-11-05 05:01:00,54.6,36.0,30.09,ENE,72,1.0,2.0,50,0.00,,,0.00,weatherlink.com 1.10,2013-11-05 13:01:00,
2013-11-05 05:16:00,53.9,35.0,30.10,ENE,72,1.0,2.0,50,0.00,,,0.00,weatherlink.com 1.10,2013-11-05 13:16:00,
2013-11-05 05:31:00,52.6,35.0,30.11,ENE,72,1.0,2.0,52,0.00,,,0.00,weatherlink.com 1.10,2013-11-05 13:31:00,
2013-11-05 05:46:00,52.6,35.0,30.11,ENE,68,2.0,2.0,51,0.00,,,0.00,weatherlink.com 1.10,2013-11-05 13:46:00,
2013-11-05 06:01:00,51.8,35.0,30.12,NE,52,2.0,3.0,53,0.00,,,0.00,weatherlink.com 1.10,2013-11-05 14:01:00,
2013-11-05 06:16:00,52.2,35.0,30.12,ENE,72,1.0,4.0,53,0.00,,,0.00,weatherlink.com 1.10,2013-11-05 14:16:00,
2013-11-05 06:31:00,52.1,35.0,30.13,East,85,2.0,3.0,53,0.00,,,0.00,weatherlink.com 1.10,2013-11-05 14:31:00,
2013-11-05 06:46:00,52.5,36.0,30.13,East,82,1.0,4.0,53,0.00,,,0.00,weatherlink.com 1.10,2013-11-05 14:46:00,
2013-11-05 07:01:00,52.5,36.0,30.13,ENE,78,0.0,2.0,53,0.00,,,0.00,weatherlink.com 1.10,2013-11-05 15:01:00,
2013-11-05 07:16:00,52.5,35.0,30.14,East,94,1.0,2.0,52,0.00,,,0.00,weatherlink.com 1.10,2013-11-05 15:16:00,
2013-11-05 07:31:00,53.9,36.0,30.14,East,91,0.0,1.0,51,0.00,,,0.00,weatherlink.com 1.10,2013-11-05 15:31:00,
2013-11-05 07:46:00,54.8,36.0,30.15,East,92,1.0,1.0,50,0.00,,,0.00,weatherlink.com 1.10,2013-11-05 15:46:00,
2013-11-05 08:01:00,56.4,38.0,30.15,East,83,2.0,2.0,50,0.00,,,0.00,weatherlink.com 1.10,2013-11-05 16:01:00,
2013-11-05 08:16:00,58.8,36.0,30.16,ENE,64,1.0,1.0,43,0.00,,,0.00,weatherlink.com 1.10,2013-11-05 16:16:00,
2013-11-05 08:32:00,60.1,37.0,30.16,NW,312,0.0,2.0,42,0.00,,,0.00,weatherlink.com 1.10,2013-11-05 16:32:00,
2013-11-05 08:47:00,60.0,37.0,30.16,NW,305,2.0,2.0,43,0.00,,,0.00,weatherlink.com 1.10,2013-11-05 16:47:00,
2013-11-05 09:02:00,60.7,37.0,30.16,NW,324,0.0,2.0,42,0.00,,,0.00,weatherlink.com 1.10,2013-11-05 17:02:00,
2013-11-05 09:17:00,61.3,37.0,30.16,WNW,288,1.0,4.0,40,0.00,,,0.00,weatherlink.com 1.10,2013-11-05 17:17:00,
2013-11-05 09:32:00,62.5,36.0,30.16,WSW,257,0.0,2.0,38,0.00,,,0.00,weatherlink.com 1.10,2013-11-05 17:32:00,
2013-11-05 09:47:00,63.0,37.0,30.16,WSW,255,1.0,5.0,38,0.00,,,0.00,weatherlink.com 1.10,2013-11-05 17:47:00,
2013-11-05 10:02:00,64.7,36.0,30.16,SW,224,2.0,5.0,35,0.00,,,0.00,weatherlink.com 1.10,2013-11-05 18:02:00,
2013-11-05 10:17:00,64.7,38.0,30.16,SW,226,0.0,4.0,38,0.00,,,0.00,weatherlink.com 1.10,2013-11-05 18:17:00,
2013-11-05 10:32:00,64.8,39.0,30.16,South,190,2.0,5.0,39,0.00,,,0.00,weatherlink.com 1.10,2013-11-05 18:32:00,
2013-11-05 10:47:00,65.2,39.0,30.16,WSW,238,2.0,4.0,38,0.00,,,0.00,weatherlink.com 1.10,2013-11-05 18:47:00,
2013-11-05 11:02:00,65.7,39.0,30.17,SW,228,3.0,5.0,38,0.00,,,0.00,weatherlink.com 1.10,2013-11-05 19:02:00,
2013-11-05 11:17:00,66.4,39.0,30.16,SSE,152,1.0,5.0,36,0.00,,,0.00,weatherlink.com 1.10,2013-11-05 19:17:00,
2013-11-05 11:32:00,67.6,40.0,30.15,South,179,5.0,9.0,36,0.00,,,0.00,weatherlink.com 1.10,2013-11-05 19:32:00,
2013-11-05 11:47:00,67.5,39.0,30.15,SW,222,3.0,5.0,35,0.00,,,0.00,weatherlink.com 1.10,2013-11-05 19:47:00,
2013-11-05 12:02:00,66.6,38.0,30.14,South,188,3.0,6.0,35,0.00,,,0.00,weatherlink.com 1.10,2013-11-05 20:02:00,
2013-11-05 12:17:00,67.2,37.0,30.14,WSW,257,3.0,5.0,33,0.00,,,0.00,weatherlink.com 1.10,2013-11-05 20:17:00,
2013-11-05 12:32:00,67.9,38.0,30.14,WSW,239,0.0,4.0,33,0.00,,,0.00,weatherlink.com 1.10,2013-11-05 20:32:00,
2013-11-05 12:47:00,69.8,38.0,30.13,SSW,197,4.0,4.0,31,0.00,,,0.00,weatherlink.com 1.10,2013-11-05 20:47:00,
2013-11-05 13:02:00,69.7,38.0,30.12,SSE,155,1.0,7.0,32,0.00,,,0.00,weatherlink.com 1.10,2013-11-05 21:02:00,
2013-11-05 13:17:00,70.4,39.0,30.12,WNW,289,1.0,5.0,32,0.00,,,0.00,weatherlink.com 1.10,2013-11-05 21:17:00,
2013-11-05 13:32:00,70.8,39.0,30.11,SE,142,4.0,5.0,31,0.00,,,0.00,weatherlink.com 1.10,2013-11-05 21:32:00,
2013-11-05 13:47:00,71.0,40.0,30.11,SW,228,6.0,7.0,32,0.00,,,0.00,weatherlink.com 1.10,2013-11-05 21:47:00,
2013-11-05 14:02:00,70.8,41.0,30.11,WSW,239,5.0,5.0,34,0.00,,,0.00,weatherlink.com 1.10,2013-11-05 22:02:00,
2013-11-05 14:17:00,71.1,41.0,30.11,South,191,2.0,6.0,34,0.00,,,0.00,weatherlink.com 1.10,2013-11-05 22:17:00,
2013-11-05 14:32:00,71.4,40.0,30.10,SW,223,4.0,6.0,32,0.00,,,0.00,weatherlink.com 1.10,2013-11-05 22:32:00,
2013-11-05 14:47:00,71.5,39.0,30.11,SW,229,1.0,6.0,31,0.00,,,0.00,weatherlink.com 1.10,2013-11-05 22:47:00,
2013-11-05 15:02:00,72.2,41.0,30.10,SE,129,2.0,6.0,32,0.00,,,0.00,weatherlink.com 1.10,2013-11-05 23:02:00,
2013-11-05 15:17:00,71.6,39.0,30.11,West,259,5.0,7.0,30,0.00,,,0.00,weatherlink.com 1.10,2013-11-05 23:17:00,
2013-11-05 15:32:00,70.7,39.0,30.11,SW,228,3.0,8.0,32,0.00,,,0.00,weatherlink.com 1.10,2013-11-05 23:32:00,
2013-11-05 15:47:00,70.1,41.0,30.11,SSE,149,1.0,5.0,35,0.00,,,0.00,weatherlink.com 1.10,2013-11-05 23:47:00,
2013-11-05 16:03:00,69.4,42.0,30.11,South,177,3.0,7.0,37,0.00,,,0.00,weatherlink.com 1.10,2013-11-06 00:03:00,
2013-11-05 16:17:00,68.2,43.0,30.11,SSE,165,2.0,8.0,40,0.00,,,0.00,weatherlink.com 1.10,2013-11-06 00:17:00,
2013-11-05 16:32:00,67.2,42.0,30.11,SE,131,3.0,6.0,40,0.00,,,0.00,weatherlink.com 1.10,2013-11-06 00:32:00,
2013-11-05 16:47:00,66.3,40.0,30.11,SSW,207,3.0,7.0,39,0.00,,,0.00,weatherlink.com 1.10,2013-11-06 00:47:00,
2013-11-05 17:03:00,65.2,38.0,30.11,SSW,203,2.0,3.0,37,0.00,,,0.00,weatherlink.com 1.10,2013-11-06 01:03:00,
2013-11-05 17:18:00,63.6,39.0,30.11,SE,129,0.0,2.0,40,0.00,,,0.00,weatherlink.com 1.10,2013-11-06 01:18:00,
2013-11-05 17:33:00,62.5,38.0,30.12,East,98,1.0,2.0,40,0.00,,,0.00,weatherlink.com 1.10,2013-11-06 01:33:00,
2013-11-05 17:48:00,61.9,37.0,30.12,East,85,1.0,3.0,40,0.00,,,0.00,weatherlink.com 1.10,2013-11-06 01:48:00,
2013-11-05 18:03:00,61.4,37.0,30.13,East,88,3.0,3.0,41,0.00,,,0.00,weatherlink.com 1.10,2013-11-06 02:03:00,
2013-11-05 18:18:00,61.0,38.0,30.13,ESE,113,2.0,3.0,42,0.00,,,0.00,weatherlink.com 1.10,2013-11-06 02:18:00,
2013-11-05 18:33:00,60.1,38.0,30.14,ESE,121,0.0,3.0,44,0.00,,,0.00,weatherlink.com 1.10,2013-11-06 02:33:00,
2013-11-05 18:48:00,59.4,38.0,30.14,SE,128,0.0,3.0,45,0.00,,,0.00,weatherlink.com 1.10,2013-11-06 02:48:00,
2013-11-05 19:03:00,58.4,38.0,30.14,SE,126,0.0,2.0,47,0.00,,,0.00,weatherlink.com 1.10,2013-11-06 03:03:00,
2013-11-05 19:18:00,57.8,38.0,30.14,East,89,0.0,2.0,48,0.00,,,0.00,weatherlink.com 1.10,2013-11-06 03:18:00,
2013-11-05 19:33:00,57.8,37.0,30.14,East,91,0.0,2.0,47,0.00,,,0.00,weatherlink.com 1.10,2013-11-06 03:33:00,
2013-11-05 19:48:00,57.1,38.0,30.15,East,100,1.0,1.0,49,0.00,,,0.00,weatherlink.com 1.10,2013-11-06 03:48:00,
2013-11-05 20:03:00,58.6,37.0,30.15,East,96,3.0,3.0,45,0.00,,,0.00,weatherlink.com 1.10,2013-11-06 04:03:00,
2013-11-05 20:18:00,58.1,37.0,30.15,ESE,109,0.0,1.0,46,0.00,,,0.00,weatherlink.com 1.10,2013-11-06 04:18:00,
2013-11-05 20:33:00,59.2,38.0,30.16,East,101,2.0,3.0,45,0.00,,,0.00,weatherlink.com 1.10,2013-11-06 04:33:00,
2013-11-05 20:48:00,58.7,38.0,30.16,East,97,2.0,2.0,46,0.00,,,0.00,weatherlink.com 1.10,2013-11-06 04:48:00,
2013-11-05 21:03:00,58.6,38.0,30.17,East,91,0.0,2.0,46,0.00,,,0.00,weatherlink.com 1.10,2013-11-06 05:03:00,
2013-11-05 21:18:00,58.0,38.0,30.17,East,90,1.0,2.0,48,0.00,,,0.00,weatherlink.com 1.10,2013-11-06 05:18:00,
2013-11-05 21:33:00,58.6,38.0,30.18,East,87,0.0,2.0,47,0.00,,,0.00,weatherlink.com 1.10,2013-11-06 05:33:00,
2013-11-05 21:48:00,57.1,38.0,30.18,ESE,105,0.0,1.0,49,0.00,,,0.00,weatherlink.com 1.10,2013-11-06 05:48:00,
2013-11-05 22:03:00,57.7,38.0,30.19,ESE,108,1.0,2.0,48,0.00,,,0.00,weatherlink.com 1.10,2013-11-06 06:03:00,
2013-11-05 22:18:00,57.4,38.0,30.20,East,101,1.0,1.0,49,0.00,,,0.00,weatherlink.com 1.10,2013-11-06 06:18:00,
2013-11-05 22:33:00,56.9,38.0,30.19,East,98,1.0,1.0,49,0.00,,,0.00,weatherlink.com 1.10,2013-11-06 06:33:00,
2013-11-05 22:48:00,57.7,38.0,30.19,ESE,103,2.0,3.0,48,0.00,,,0.00,weatherlink.com 1.10,2013-11-06 06:48:00,
2013-11-05 23:03:00,57.8,38.0,30.19,East,86,1.0,2.0,48,0.00,,,0.00,weatherlink.com 1.10,2013-11-06 07:03:00,
2013-11-05 23:18:00,57.3,38.0,30.19,ESE,116,1.0,2.0,49,0.00,,,0.00,weatherlink.com 1.10,2013-11-06 07:18:00,
2013-11-05 23:33:00,57.2,39.0,30.18,ESE,115,0.0,2.0,50,0.00,,,0.00,weatherlink.com 1.10,2013-11-06 07:33:00,
2013-11-05 23:48:00,56.0,38.0,30.18,ENE,75,2.0,2.0,51,0.00,,,0.00,weatherlink.com 1.10,2013-11-06 07:48:00,